createdAt,value
2022-11-16T00:00:18.647Z,13.00
2022-11-16T00:02:48.747Z,12.94
2022-11-16T00:05:18.517Z,12.89
2022-11-16T00:07:47.975Z,12.93
2022-11-16T00:10:20.599Z,12.95
2022-11-16T00:12:50.963Z,12.85
2022-11-16T00:15:20.902Z,12.83
2022-11-16T00:17:56.732Z,12.93
2022-11-16T00:20:26.493Z,12.87
2022-11-16T00:22:55.125Z,12.91
2022-11-16T00:25:27.209Z,12.95
2022-11-16T00:28:05.255Z,13.07
2022-11-16T00:30:35.330Z,13.04
2022-11-16T00:33:08.009Z,13.06
2022-11-16T00:35:40.190Z,13.02
2022-11-16T00:38:10.092Z,13.08
2022-11-16T00:40:43.537Z,13.10
2022-11-16T00:43:13.424Z,13.03
2022-11-16T00:45:43.194Z,13.02
2022-11-16T00:48:13.998Z,13.03
2022-11-16T00:50:56.526Z,12.98
2022-11-16T00:53:24.362Z,13.09
2022-11-16T00:55:51.781Z,13.08
2022-11-16T00:58:23.239Z,13.21
2022-11-16T01:01:05.732Z,13.07
2022-11-16T01:03:33.743Z,13.23
2022-11-16T01:06:05.160Z,13.21
2022-11-16T01:08:33.421Z,13.14
2022-11-16T01:11:20.983Z,13.09
2022-11-16T01:13:50.775Z,13.09
2022-11-16T01:16:30.029Z,13.25
2022-11-16T01:19:03.222Z,13.22
2022-11-16T01:21:37.552Z,13.10
2022-11-16T01:24:07.969Z,13.21
2022-11-16T01:26:35.237Z,13.26
2022-11-16T01:29:02.266Z,13.29
2022-11-16T01:31:35.901Z,13.24
2022-11-16T01:34:06.615Z,13.17
2022-11-16T01:36:36.756Z,13.11
2022-11-16T01:41:54.335Z,13.21
2022-11-16T01:44:33.725Z,13.26
2022-11-16T01:47:13.246Z,13.25
2022-11-16T01:49:44.777Z,13.27
2022-11-16T01:52:19.619Z,13.20
2022-11-16T01:54:49.992Z,13.30
2022-11-16T01:57:29.990Z,13.34
2022-11-16T02:00:07.186Z,13.29
2022-11-16T02:03:00.342Z,13.37
2022-11-16T02:06:23.516Z,13.36
2022-11-16T02:09:29.363Z,13.38
2022-11-16T02:12:11.143Z,13.35
2022-11-16T02:15:08.462Z,13.31
2022-11-16T02:18:02.839Z,13.30
2022-11-16T02:20:52.115Z,13.28
2022-11-16T02:23:59.178Z,13.30
2022-11-16T02:26:35.295Z,13.30
2022-11-16T02:29:34.193Z,13.25
2022-11-16T02:43:59.578Z,13.11
2022-11-16T02:46:40.334Z,13.04
2022-11-16T02:49:19.218Z,13.10
2022-11-16T02:52:36.710Z,12.99
2022-11-16T02:55:39.575Z,13.02
2022-11-16T02:58:18.718Z,12.91
2022-11-16T03:01:04.227Z,12.91
2022-11-16T03:03:48.381Z,12.83
2022-11-16T03:06:24.694Z,12.85
2022-11-16T03:09:19.483Z,12.83
2022-11-16T03:12:00.478Z,12.68
2022-11-16T03:14:47.114Z,12.69
2022-11-16T03:17:26.039Z,12.60
2022-11-16T03:20:12.832Z,12.68
2022-11-16T03:22:46.687Z,12.51
2022-11-16T03:25:18.987Z,12.54
2022-11-16T03:28:08.065Z,12.45
2022-11-16T03:30:44.833Z,12.30
2022-11-16T03:33:18.229Z,12.19
2022-11-16T03:36:05.792Z,12.25
2022-11-16T03:38:36.968Z,12.23
2022-11-16T03:41:18.181Z,12.09
2022-11-16T03:43:51.889Z,11.99
2022-11-16T03:46:24.706Z,12.09
2022-11-16T03:48:59.595Z,11.97
2022-11-16T03:51:52.302Z,11.83
2022-11-16T03:54:24.107Z,11.74
2022-11-16T03:56:58.563Z,11.79
2022-11-16T03:59:29.142Z,11.69
2022-11-16T04:01:59.656Z,11.68
2022-11-16T04:04:48.311Z,11.79
2022-11-16T04:07:34.669Z,11.74
2022-11-16T04:10:26.560Z,11.66
2022-11-16T04:13:14.685Z,11.74
2022-11-16T04:16:11.542Z,11.64
2022-11-16T04:19:08.377Z,11.69
2022-11-16T04:22:00.413Z,11.65
2022-11-16T04:24:45.513Z,11.63
2022-11-16T04:27:39.560Z,11.61
2022-11-16T04:30:13.040Z,11.60
2022-11-16T04:33:02.619Z,11.47
2022-11-16T04:35:48.670Z,11.53
2022-11-16T04:38:19.219Z,11.53
2022-11-16T04:40:46.498Z,11.62
2022-11-16T04:43:20.216Z,11.64
2022-11-16T04:46:11.716Z,11.69
2022-11-16T04:48:43.216Z,11.46
2022-11-16T04:51:10.587Z,11.60
2022-11-16T04:53:38.582Z,11.59
2022-11-16T04:56:16.610Z,11.55
2022-11-16T04:58:43.597Z,11.49
2022-11-16T05:01:10.860Z,11.42
2022-11-16T05:03:48.501Z,11.52
2022-11-16T05:06:20.166Z,11.41
2022-11-16T05:08:48.315Z,11.32
2022-11-16T05:11:16.688Z,11.26
2022-11-16T05:13:48.502Z,11.13
2022-11-16T05:16:17.907Z,11.05
2022-11-16T05:19:05.800Z,10.91
2022-11-16T05:21:36.834Z,10.97
2022-11-16T05:24:28.444Z,10.74
2022-11-16T05:26:55.804Z,10.67
2022-11-16T05:29:40.536Z,10.71
2022-11-16T05:32:32.924Z,10.64
2022-11-16T05:35:02.005Z,10.53
2022-11-16T05:37:30.570Z,10.43
2022-11-16T05:40:01.006Z,10.31
2022-11-16T05:42:48.435Z,10.26
2022-11-16T05:45:22.230Z,10.09
2022-11-16T05:47:53.599Z,10.10
2022-11-16T05:54:49.188Z,9.96
2022-11-16T05:57:21.865Z,9.81
2022-11-16T05:59:50.333Z,9.80
2022-11-16T06:02:18.840Z,9.79
2022-11-16T06:04:58.750Z,9.74
2022-11-16T06:07:29.355Z,9.63
2022-11-16T06:10:03.202Z,9.61
2022-11-16T06:12:32.873Z,9.58
2022-11-16T06:15:04.123Z,9.43
2022-11-16T06:17:35.133Z,9.49
2022-11-16T06:20:14.741Z,9.38
2022-11-16T06:22:50.119Z,9.45
2022-11-16T06:25:20.053Z,9.45
2022-11-16T06:27:47.862Z,9.52
2022-11-16T06:30:20.991Z,9.47
2022-11-16T06:32:51.821Z,9.38
2022-11-16T06:35:24.100Z,9.53
2022-11-16T06:37:59.282Z,9.39
2022-11-16T06:40:28.639Z,9.46
2022-11-16T06:42:57.962Z,9.37
2022-11-16T06:45:27.392Z,9.39
2022-11-16T06:48:00.806Z,9.46
2022-11-16T06:50:28.164Z,9.41
2022-11-16T06:52:55.607Z,9.51
2022-11-16T06:55:32.015Z,9.45
2022-11-16T06:58:16.413Z,9.48
2022-11-16T07:00:51.518Z,9.27
2022-11-16T07:03:19.659Z,9.32
2022-11-16T07:05:56.873Z,9.26
2022-11-16T07:08:28.090Z,9.38
2022-11-16T07:10:58.991Z,9.40
2022-11-16T07:13:49.865Z,9.44
2022-11-16T07:16:24.591Z,9.40
2022-11-16T07:18:59.362Z,9.41
2022-11-16T07:22:26.705Z,9.41
2022-11-16T07:24:57.708Z,9.47
2022-11-16T07:27:27.150Z,9.52
2022-11-16T07:29:57.560Z,9.49
2022-11-16T07:32:50.497Z,9.59
2022-11-16T07:35:44.850Z,9.68
2022-11-16T07:38:19.002Z,9.55
2022-11-16T07:40:49.831Z,9.56
2022-11-16T07:43:33.026Z,9.72
2022-11-16T07:46:48.592Z,9.73
2022-11-16T07:49:35.456Z,9.87
2022-11-16T07:52:29.767Z,9.76
2022-11-16T07:58:18.960Z,9.74
2022-11-16T08:01:09.408Z,9.72
2022-11-16T08:07:06.332Z,9.72
2022-11-16T08:09:42.419Z,9.80
2022-11-16T08:12:23.331Z,9.73
2022-11-16T08:14:56.625Z,9.74
2022-11-16T08:17:41.972Z,9.77
2022-11-16T08:20:21.357Z,9.77
2022-11-16T08:22:55.095Z,9.81
2022-11-16T08:26:27.112Z,9.86
2022-11-16T08:29:04.812Z,9.89
2022-11-16T08:34:32.249Z,10.04
2022-11-16T08:37:16.932Z,9.98
2022-11-16T08:39:50.967Z,10.12
2022-11-16T08:42:40.742Z,10.02
2022-11-16T08:45:31.958Z,10.10
2022-11-16T08:48:17.957Z,10.09
2022-11-16T08:53:52.685Z,10.20
2022-11-16T08:56:25.854Z,10.26
2022-11-16T08:59:11.927Z,10.20
2022-11-16T09:01:55.630Z,10.25
2022-11-16T09:04:26.551Z,10.28
2022-11-16T09:07:07.575Z,10.28
2022-11-16T09:09:42.665Z,10.32
2022-11-16T09:12:22.699Z,10.43
2022-11-16T09:14:54.409Z,10.46
2022-11-16T09:17:29.022Z,10.58
2022-11-16T09:19:56.285Z,10.62
2022-11-16T09:22:25.788Z,10.65
2022-11-16T09:24:55.880Z,10.62
2022-11-16T09:27:27.988Z,10.70
2022-11-16T09:30:00.717Z,10.70
2022-11-16T09:32:31.148Z,10.83
2022-11-16T09:35:06.075Z,10.90
2022-11-16T09:48:28.593Z,11.16
2022-11-16T09:51:18.529Z,11.25
2022-11-16T09:55:17.363Z,11.31
2022-11-16T09:57:42.718Z,11.31
2022-11-16T10:00:53.537Z,11.45
2022-11-16T10:03:31.539Z,11.60
2022-11-16T10:06:54.605Z,11.67
2022-11-16T10:09:59.850Z,11.74
2022-11-16T10:16:02.577Z,11.81
2022-11-16T10:18:50.148Z,11.90
2022-11-16T10:21:39.807Z,12.01
2022-11-16T10:24:38.881Z,12.09
2022-11-16T10:27:35.880Z,11.91
2022-11-16T10:30:28.588Z,12.09
2022-11-16T10:33:41.322Z,12.21
2022-11-16T10:36:20.096Z,12.04
2022-11-16T10:38:51.004Z,12.18
2022-11-16T10:41:36.718Z,12.39
2022-11-16T10:44:30.394Z,12.39
2022-11-16T10:47:19.458Z,12.53
2022-11-16T10:53:06.363Z,12.96
2022-11-16T10:55:37.452Z,12.90
2022-11-16T10:58:15.235Z,12.88
2022-11-16T11:00:52.071Z,13.02
2022-11-16T11:03:40.968Z,13.18
2022-11-16T11:06:20.259Z,13.23
2022-11-16T11:09:01.543Z,13.40
2022-11-16T11:12:05.623Z,13.09
2022-11-16T11:15:30.315Z,13.06
2022-11-16T11:18:33.101Z,13.03
2022-11-16T11:21:35.015Z,13.05
2022-11-16T11:24:42.892Z,13.03
2022-11-16T11:27:05.917Z,12.92
2022-11-16T11:29:40.684Z,12.86
2022-11-16T11:32:23.562Z,13.00
2022-11-16T11:35:03.646Z,13.09
2022-11-16T11:37:56.196Z,12.93
2022-11-16T11:40:57.783Z,12.95
2022-11-16T11:43:30.022Z,12.95
2022-11-16T11:46:56.174Z,13.05
2022-11-16T11:49:41.780Z,13.17
2022-11-16T11:52:55.721Z,13.11
2022-11-16T11:55:32.946Z,12.93
2022-11-16T11:58:03.133Z,12.96
2022-11-16T12:01:22.205Z,13.10
2022-11-16T12:04:44.867Z,13.30
2022-11-16T12:08:17.439Z,13.45
2022-11-16T12:11:14.563Z,13.44
2022-11-16T12:15:10.893Z,13.22
2022-11-16T12:19:17.294Z,12.83
2022-11-16T12:22:33.286Z,12.74
2022-11-16T12:25:31.743Z,12.83
2022-11-16T12:28:35.295Z,12.83
2022-11-16T12:34:59.898Z,12.92
2022-11-16T12:42:04.307Z,13.02
2022-11-16T12:45:22.186Z,13.18
2022-11-16T12:48:25.506Z,13.07
2022-11-16T12:51:12.109Z,13.06
2022-11-16T12:54:24.192Z,13.22
2022-11-16T12:57:28.637Z,13.47
2022-11-16T13:00:38.528Z,13.69
2022-11-16T13:03:32.542Z,13.58
2022-11-16T13:06:39.276Z,13.69
2022-11-16T13:10:04.396Z,13.65
2022-11-16T13:12:36.665Z,13.56
2022-11-16T13:15:25.335Z,13.62
2022-11-16T13:18:03.372Z,13.51
2022-11-16T13:21:16.752Z,13.50
2022-11-16T13:23:48.394Z,13.34
2022-11-16T13:27:01.836Z,13.39
2022-11-16T13:29:44.807Z,13.20
2022-11-16T13:32:20.823Z,13.17
2022-11-16T13:35:26.365Z,13.17
2022-11-16T13:37:56.494Z,13.12
2022-11-16T13:40:38.782Z,13.09
2022-11-16T13:46:53.755Z,13.14
2022-11-16T13:49:34.596Z,13.28
2022-11-16T13:53:31.838Z,13.23
2022-11-16T13:56:03.840Z,13.25
2022-11-16T14:02:22.660Z,13.18
2022-11-16T14:05:01.632Z,13.14
2022-11-16T14:07:52.523Z,13.03
2022-11-16T14:10:35.704Z,13.24
2022-11-16T14:13:49.124Z,13.33
2022-11-16T14:16:27.983Z,13.37
2022-11-16T14:19:39.001Z,13.33
2022-11-16T14:22:22.767Z,13.24
2022-11-16T14:25:15.906Z,13.26
2022-11-16T14:28:21.314Z,13.33
2022-11-16T14:31:40.081Z,13.26
2022-11-16T14:34:55.750Z,13.05
2022-11-16T14:41:52.420Z,13.06
2022-11-16T14:44:43.940Z,13.21
2022-11-16T14:48:04.592Z,13.10
2022-11-16T14:50:41.056Z,13.25
2022-11-16T15:05:29.007Z,13.05
2022-11-16T15:24:15.458Z,12.51
2022-11-16T15:30:44.293Z,12.57
2022-11-16T15:35:05.202Z,12.62
2022-11-16T15:38:32.849Z,12.24
2022-11-16T15:41:37.232Z,12.07
2022-11-16T15:44:26.400Z,12.10
2022-11-16T15:47:20.843Z,12.23
2022-11-16T15:50:08.876Z,11.97
2022-11-16T15:59:45.474Z,11.43
2022-11-16T16:01:58.829Z,11.42
2022-11-16T16:04:52.292Z,11.46
2022-11-16T16:07:48.509Z,11.40
2022-11-16T16:15:48.044Z,11.25
2022-11-16T16:22:56.472Z,11.07
2022-11-16T16:25:36.239Z,11.03
2022-11-16T16:28:10.486Z,10.82
2022-11-16T16:30:53.882Z,10.86
2022-11-16T16:33:48.150Z,10.85
2022-11-16T16:44:50.544Z,10.61
2022-11-16T16:47:29.063Z,10.66
2022-11-16T16:56:36.692Z,10.69
2022-11-16T17:20:56.255Z,10.35
2022-11-16T17:23:35.509Z,10.54
2022-11-16T17:27:02.416Z,10.55
2022-11-16T17:31:00.267Z,10.95
2022-11-16T18:15:55.228Z,11.78
2022-11-16T18:18:29.745Z,11.59
2022-11-16T18:20:58.902Z,11.74
2022-11-16T18:24:21.382Z,11.77
2022-11-16T18:27:26.624Z,11.93
2022-11-16T18:34:05.327Z,11.84
2022-11-16T18:47:59.837Z,12.00
2022-11-16T19:35:37.287Z,11.53
2022-11-16T20:17:16.876Z,11.40
2022-11-16T20:20:33.883Z,11.56
2022-11-16T20:40:35.323Z,11.52
2022-11-16T20:44:24.241Z,11.59
2022-11-16T20:47:03.650Z,11.52
2022-11-16T20:49:51.723Z,11.55
2022-11-16T20:52:30.542Z,11.52
2022-11-16T20:55:23.791Z,11.58
2022-11-16T20:58:22.640Z,11.76
2022-11-16T21:02:03.272Z,11.66
2022-11-16T21:09:58.908Z,11.88
2022-11-16T21:12:51.956Z,11.67
2022-11-16T21:15:34.570Z,11.76
2022-11-16T21:21:41.233Z,11.48
2022-11-16T21:24:19.574Z,11.52
2022-11-16T21:27:00.499Z,11.37
2022-11-16T21:29:31.675Z,11.31
2022-11-16T21:32:26.796Z,11.43
2022-11-16T21:35:04.899Z,11.16
2022-11-16T21:38:11.280Z,11.26
2022-11-16T21:40:57.474Z,11.27
2022-11-16T21:43:34.217Z,11.23
2022-11-16T21:46:51.791Z,11.07
2022-11-16T21:53:58.871Z,10.97
2022-11-16T21:56:36.416Z,10.95
2022-11-16T21:59:38.305Z,10.94
2022-11-16T22:02:30.162Z,10.91
2022-11-16T22:05:52.381Z,10.90
2022-11-16T22:08:30.062Z,10.93
2022-11-16T22:11:21.585Z,10.92
2022-11-16T22:40:04.952Z,10.89
2022-11-16T22:42:32.474Z,10.88
2022-11-16T22:45:01.515Z,10.91
2022-11-16T22:47:54.891Z,10.96
2022-11-16T22:50:27.920Z,10.96
2022-11-16T22:59:31.358Z,11.10
2022-11-16T23:02:55.035Z,11.18
2022-11-16T23:17:08.981Z,11.07
2022-11-16T23:25:00.137Z,10.93
2022-11-16T23:27:54.755Z,11.02
2022-11-16T23:30:52.637Z,10.88
2022-11-16T23:46:12.936Z,10.91
2022-11-16T23:53:31.606Z,10.92
